Fort Lauderdale, FL

8:00 AM EDT on October 31, 2014 (GMT -0400)
River Reach in SW Ft. Lauderdale | Change Station
CLOSE
Current Station
Personal Weather Station
Location: Ft.Lauderdale, FL
Elevation: 74 ft
Nearby Weather Stations

Elev 74 ft 26.11 °N, 80.16 °W | Updated 2 minutes ago

Clear
Clear
71.8 °F
Feels Like 71.8 °F
N
4.0
Wind Variable Wind from WSW
Gusts 5.0 mph

Today
High -- | Low -- °F
--% Chance of Precip.
Yesterday
High -- | Low -- °F
Precip. -- in
7:28 AM 6:39 PM
First Quarter, 54% visible
Pressure 29.86 in
Visibility 10.0 miles
Clouds Few 6000 ft
Few 10000 ft
Dew Point 70 °F
Humidity 95%
Rainfall 0.00 in
Snow Depth Not available.
UV 0 out of 12
Pollen 3.10 out of 12
Air Quality Not available.
Flu Activity Not available.
METAR KFLL 311153Z 25004KT 10SM FEW060 FEW100 23/21 A2985 RMK AO2 SLP109 T02280206 10244 20222 53011

More Conditions Fewer Conditions

Pressure 29.86 in
Visibility 10.0 miles
Clouds Few 6000 ft
Few 10000 ft
Dew Point 70 °F
Humidity 95%
Rainfall 0.00 in
Snow Depth Not available.
UV 0 out of 12
Pollen 3.10 out of 12
Air Quality Not available.
Flu Activity Not available.
METAR KFLL 311153Z 25004KT 10SM FEW060 FEW100 23/21 A2985 RMK AO2 SLP109 T02280206 10244 20222 53011

More Conditions Fewer Conditions

10-Day Weather Forecast

Almanac

Astronomy

Oct. 31, 2014 Rise Set
Actual Time
Civil Twilight
Nautical Twilight
Astronomical Twilight
Moon
Length of Visible Light
Length of Day
Tomorrow will be .
, % of the Moon is Illuminated

Today's Extremes

State Highs State Lows

Community

WunderPhotos

Upload Photos

1,766,589 photos uploaded!

WunderBlogs® & News

Nearby

Air Quality

  Air Quality AQ Index Pollutant
Not available.

Snow Depth

Station Depth Elevation

Earthquake Activity

City Distance Mag. Time & Date
Minimum magnitude displayed is 2.5.

Coastal Water Temperatures

Place Temperature

Nearby Weather Stations